createdAt,value
2023-01-27T00:00:45.562Z,5.21
2023-01-27T00:03:15.456Z,5.14
2023-01-27T00:05:42.320Z,5.14
2023-01-27T00:08:09.044Z,5.04
2023-01-27T00:10:35.651Z,5.01
2023-01-27T00:13:23.411Z,4.92
2023-01-27T00:15:52.553Z,4.77
2023-01-27T00:18:19.292Z,4.77
2023-01-27T00:21:05.613Z,4.76
2023-01-27T00:23:53.314Z,4.66
2023-01-27T00:26:22.607Z,4.69
2023-01-27T00:28:51.735Z,4.75
2023-01-27T00:31:37.796Z,4.77
2023-01-27T00:34:11.182Z,4.77
2023-01-27T00:36:39.811Z,4.78
2023-01-27T00:39:12.136Z,4.74
2023-01-27T00:41:41.998Z,4.72
2023-01-27T00:44:13.070Z,4.68
2023-01-27T00:46:40.592Z,4.62
2023-01-27T00:49:08.933Z,4.59
2023-01-27T00:51:36.928Z,4.60
2023-01-27T00:54:04.313Z,4.65
2023-01-27T00:56:35.803Z,4.74
2023-01-27T00:59:04.855Z,4.70
2023-01-27T01:01:36.529Z,4.55
2023-01-27T01:04:03.221Z,4.55
2023-01-27T01:06:39.644Z,4.40
2023-01-27T01:09:08.463Z,4.54
2023-01-27T01:11:35.438Z,4.59
2023-01-27T01:14:04.514Z,4.62
2023-01-27T01:16:33.219Z,4.67
2023-01-27T01:19:02.980Z,4.55
2023-01-27T01:21:31.993Z,4.54
2023-01-27T01:24:01.184Z,4.50
2023-01-27T01:26:27.883Z,4.49
2023-01-27T01:28:55.593Z,4.42
2023-01-27T01:31:27.009Z,4.43
2023-01-27T01:33:59.115Z,4.52
2023-01-27T01:36:28.324Z,4.57
2023-01-27T01:38:58.983Z,4.63
2023-01-27T01:41:25.675Z,4.55
2023-01-27T01:43:54.583Z,4.59
2023-01-27T01:46:26.686Z,4.44
2023-01-27T01:49:01.184Z,4.41
2023-01-27T01:51:29.277Z,4.32
2023-01-27T01:54:05.101Z,4.33
2023-01-27T01:56:51.455Z,4.27
2023-01-27T01:59:26.087Z,4.21
2023-01-27T02:01:54.277Z,4.18
2023-01-27T02:04:23.875Z,4.16
2023-01-27T02:07:02.579Z,4.15
2023-01-27T02:09:31.639Z,4.16
2023-01-27T02:12:00.671Z,4.16
2023-01-27T02:14:27.348Z,4.16
2023-01-27T02:16:58.582Z,4.15
2023-01-27T02:19:46.092Z,4.19
2023-01-27T02:22:15.415Z,4.25
2023-01-27T02:24:43.989Z,4.30
2023-01-27T02:27:15.631Z,4.39
2023-01-27T02:29:43.855Z,4.41
2023-01-27T02:32:22.022Z,4.46
2023-01-27T02:34:50.962Z,4.52
2023-01-27T02:37:21.492Z,4.51
2023-01-27T02:39:49.041Z,4.52
2023-01-27T02:42:18.188Z,4.30
2023-01-27T02:44:44.866Z,4.00
2023-01-27T02:47:11.671Z,3.99
2023-01-27T02:49:38.382Z,4.04
2023-01-27T02:52:08.704Z,4.07
2023-01-27T02:54:38.443Z,4.13
2023-01-27T02:57:05.109Z,4.07
2023-01-27T02:59:36.274Z,4.00
2023-01-27T03:02:04.243Z,4.01
2023-01-27T03:04:33.423Z,3.83
2023-01-27T03:07:00.370Z,3.65
2023-01-27T03:09:30.965Z,3.62
2023-01-27T03:12:19.055Z,3.60
2023-01-27T03:15:04.509Z,3.60
2023-01-27T03:17:49.769Z,3.53
2023-01-27T03:20:19.543Z,3.56
2023-01-27T03:22:46.227Z,3.61
2023-01-27T03:25:14.863Z,3.63
2023-01-27T03:27:42.158Z,3.59
2023-01-27T03:30:23.819Z,3.41
2023-01-27T03:33:04.081Z,3.27
2023-01-27T03:35:49.543Z,3.23
2023-01-27T03:38:39.481Z,3.03
2023-01-27T03:41:24.823Z,3.04
2023-01-27T03:44:10.151Z,3.08
2023-01-27T03:46:42.370Z,3.06
2023-01-27T03:49:08.958Z,2.96
2023-01-27T03:51:38.639Z,2.87
2023-01-27T03:54:07.657Z,2.72
2023-01-27T03:56:34.609Z,2.65
2023-01-27T03:59:04.194Z,2.73
2023-01-27T04:01:33.282Z,2.73
2023-01-27T04:04:20.709Z,2.76
2023-01-27T04:06:58.515Z,2.77
2023-01-27T04:09:29.820Z,2.80
2023-01-27T04:12:00.160Z,2.80
2023-01-27T04:14:30.106Z,2.83
2023-01-27T04:17:04.206Z,2.82
2023-01-27T04:19:31.759Z,2.92
2023-01-27T04:22:01.346Z,2.99
2023-01-27T04:24:30.390Z,2.94
2023-01-27T04:27:01.476Z,3.03
2023-01-27T04:29:31.191Z,2.99
2023-01-27T04:31:58.219Z,2.99
2023-01-27T04:34:27.788Z,3.06
2023-01-27T04:36:54.702Z,3.02
2023-01-27T04:39:21.479Z,2.95
2023-01-27T04:41:49.405Z,2.89
2023-01-27T04:44:16.589Z,2.96
2023-01-27T04:46:43.488Z,3.00
2023-01-27T04:49:10.171Z,2.98
2023-01-27T04:51:39.471Z,2.99
2023-01-27T04:54:08.505Z,2.98
2023-01-27T04:56:39.523Z,2.98
2023-01-27T04:59:07.206Z,3.00
2023-01-27T05:01:33.996Z,2.98
2023-01-27T05:04:00.682Z,3.01
2023-01-27T05:06:32.160Z,3.05
2023-01-27T05:08:58.835Z,3.08
2023-01-27T05:11:27.723Z,3.09
2023-01-27T05:13:59.528Z,3.02
2023-01-27T05:16:27.839Z,2.85
2023-01-27T05:18:54.717Z,2.71
2023-01-27T05:21:22.869Z,2.51
2023-01-27T05:23:49.737Z,2.36
2023-01-27T05:26:16.375Z,2.38
2023-01-27T05:28:46.667Z,2.37
2023-01-27T05:31:19.077Z,2.39
2023-01-27T05:33:46.120Z,2.37
2023-01-27T05:36:13.551Z,2.32
2023-01-27T05:38:40.378Z,2.30
2023-01-27T05:41:10.788Z,2.33
2023-01-27T05:43:41.467Z,2.43
2023-01-27T05:46:11.622Z,2.41
2023-01-27T05:48:43.559Z,2.43
2023-01-27T05:51:13.467Z,2.37
2023-01-27T05:53:44.800Z,2.38
2023-01-27T05:56:12.552Z,2.33
2023-01-27T05:58:39.509Z,2.29
2023-01-27T06:01:07.186Z,2.34
2023-01-27T06:03:36.253Z,2.44
2023-01-27T06:06:04.248Z,2.50
2023-01-27T06:08:31.441Z,2.51
2023-01-27T06:11:00.464Z,2.51
2023-01-27T06:13:29.830Z,2.52
2023-01-27T06:15:56.891Z,2.55
2023-01-27T06:18:24.175Z,2.62
2023-01-27T06:20:51.048Z,2.69
2023-01-27T06:23:21.009Z,2.58
2023-01-27T06:25:48.664Z,2.65
2023-01-27T06:28:28.322Z,2.67
2023-01-27T06:30:58.010Z,2.69
2023-01-27T06:33:24.690Z,2.79
2023-01-27T06:35:51.278Z,2.83
2023-01-27T06:38:22.743Z,2.96
2023-01-27T06:40:51.737Z,3.01
2023-01-27T06:43:25.866Z,3.11
2023-01-27T06:45:53.092Z,3.23
2023-01-27T06:48:20.222Z,3.34
2023-01-27T06:50:46.909Z,3.46
2023-01-27T06:53:16.005Z,3.56
2023-01-27T06:55:43.731Z,3.64
2023-01-27T06:58:11.344Z,3.73
2023-01-27T07:00:38.803Z,3.79
2023-01-27T07:03:05.463Z,3.77
2023-01-27T07:05:32.694Z,3.72
2023-01-27T07:07:59.520Z,3.71
2023-01-27T07:10:26.420Z,3.76
2023-01-27T07:12:53.330Z,3.87
2023-01-27T07:15:19.982Z,3.97
2023-01-27T07:17:46.580Z,4.12
2023-01-27T07:20:15.586Z,4.10
2023-01-27T07:22:47.278Z,4.21
2023-01-27T07:25:18.888Z,4.35
2023-01-27T07:27:45.762Z,4.47
2023-01-27T07:30:12.842Z,4.62
2023-01-27T07:32:42.591Z,4.71
2023-01-27T07:35:09.587Z,4.83
2023-01-27T07:37:38.065Z,4.86
2023-01-27T07:40:05.180Z,4.72
2023-01-27T07:42:31.772Z,4.77
2023-01-27T07:45:01.805Z,4.81
2023-01-27T07:47:28.924Z,4.80
2023-01-27T07:49:58.072Z,4.78
2023-01-27T07:52:27.084Z,4.86
2023-01-27T07:54:53.626Z,4.91
2023-01-27T07:57:20.304Z,4.83
2023-01-27T07:59:49.485Z,4.85
2023-01-27T08:02:16.099Z,4.87
2023-01-27T08:04:52.635Z,4.90
2023-01-27T08:07:20.366Z,5.00
2023-01-27T08:09:49.471Z,5.10
2023-01-27T08:12:16.140Z,5.14
2023-01-27T08:14:42.735Z,5.28
2023-01-27T08:17:14.308Z,5.43
2023-01-27T08:19:41.054Z,5.51
2023-01-27T08:22:10.042Z,5.54
2023-01-27T08:24:39.209Z,5.52
2023-01-27T08:27:08.459Z,5.52
2023-01-27T08:29:37.519Z,5.52
2023-01-27T08:32:04.622Z,5.53
2023-01-27T08:34:31.790Z,5.55
2023-01-27T08:37:00.746Z,5.46
2023-01-27T08:39:30.374Z,5.40
2023-01-27T08:41:59.545Z,5.42
2023-01-27T08:44:28.268Z,5.40
2023-01-27T08:46:56.683Z,5.41
2023-01-27T08:49:23.300Z,5.41
2023-01-27T08:51:49.918Z,5.52
2023-01-27T08:54:16.619Z,5.52
2023-01-27T08:56:43.231Z,5.65
2023-01-27T08:59:12.352Z,5.75
2023-01-27T09:01:41.949Z,5.90
2023-01-27T09:04:08.665Z,5.97
2023-01-27T09:06:35.259Z,6.08
2023-01-27T09:09:12.156Z,6.13
2023-01-27T09:11:47.521Z,6.07
2023-01-27T09:14:14.161Z,6.12
2023-01-27T09:16:43.232Z,6.16
2023-01-27T09:19:12.434Z,6.11
2023-01-27T09:21:38.974Z,6.05
2023-01-27T09:24:05.841Z,6.01
2023-01-27T09:26:32.492Z,6.05
2023-01-27T09:29:03.977Z,6.06
2023-01-27T09:31:33.185Z,6.04
2023-01-27T09:34:00.399Z,6.04
2023-01-27T09:36:27.066Z,5.97
2023-01-27T09:39:01.503Z,6.04
2023-01-27T09:41:33.300Z,6.08
2023-01-27T09:44:09.631Z,6.17
2023-01-27T09:46:55.083Z,6.11
2023-01-27T09:49:24.832Z,6.05
2023-01-27T09:52:06.699Z,6.13
2023-01-27T09:54:35.795Z,6.13
2023-01-27T09:57:17.685Z,6.18
2023-01-27T09:59:58.087Z,6.08
2023-01-27T10:02:30.064Z,6.02
2023-01-27T10:05:19.839Z,6.08
2023-01-27T10:07:59.990Z,6.09
2023-01-27T10:10:32.368Z,6.08
2023-01-27T10:13:04.345Z,5.97
2023-01-27T10:15:40.888Z,5.93
2023-01-27T10:18:07.534Z,5.80
2023-01-27T10:20:42.568Z,5.77
2023-01-27T10:23:16.000Z,5.81
2023-01-27T10:26:21.316Z,5.96
2023-01-27T10:28:51.219Z,6.03
2023-01-27T10:31:20.543Z,6.12
2023-01-27T10:33:51.028Z,6.15
2023-01-27T10:36:17.559Z,6.12
2023-01-27T10:38:52.884Z,6.10
2023-01-27T10:41:26.115Z,6.12
2023-01-27T10:44:03.394Z,6.17
2023-01-27T10:46:44.936Z,6.20
2023-01-27T10:49:23.414Z,6.12
2023-01-27T10:51:52.812Z,6.05
2023-01-27T10:54:42.537Z,5.90
2023-01-27T10:57:14.472Z,5.92
2023-01-27T10:59:41.185Z,5.72
2023-01-27T11:02:20.431Z,5.71
2023-01-27T11:04:48.037Z,5.79
2023-01-27T11:07:24.153Z,5.82
2023-01-27T11:09:56.878Z,5.87
2023-01-27T11:12:30.771Z,5.85
2023-01-27T11:14:57.776Z,5.81
2023-01-27T11:17:45.390Z,5.80
2023-01-27T11:20:29.134Z,5.68
2023-01-27T11:23:04.656Z,5.74
2023-01-27T11:25:52.876Z,5.84
2023-01-27T11:28:43.281Z,5.77
2023-01-27T11:31:21.071Z,5.56
2023-01-27T11:34:06.434Z,5.39
2023-01-27T11:36:36.172Z,5.30
2023-01-27T11:39:05.188Z,5.47
2023-01-27T11:41:32.766Z,5.51
2023-01-27T11:44:02.726Z,5.48
2023-01-27T11:46:31.245Z,5.62
2023-01-27T11:48:57.980Z,5.63
2023-01-27T11:51:25.695Z,5.70
2023-01-27T11:53:56.540Z,5.49
2023-01-27T11:56:26.813Z,5.42
2023-01-27T11:58:55.707Z,5.40
2023-01-27T12:01:28.053Z,5.27
2023-01-27T12:04:01.593Z,5.23
2023-01-27T12:06:31.303Z,5.43
2023-01-27T12:08:58.104Z,5.55
2023-01-27T12:11:26.173Z,5.61
2023-01-27T12:14:01.205Z,5.61
2023-01-27T12:16:42.948Z,5.73
2023-01-27T12:19:32.903Z,5.58
2023-01-27T12:22:00.563Z,5.63
2023-01-27T12:24:30.301Z,5.69
2023-01-27T12:27:00.482Z,5.68
2023-01-27T12:29:28.511Z,5.65
2023-01-27T12:32:00.379Z,5.95
2023-01-27T12:34:29.598Z,5.99
2023-01-27T12:36:59.140Z,6.24
2023-01-27T12:39:50.180Z,6.46
2023-01-27T12:42:36.210Z,6.43
2023-01-27T12:45:23.682Z,6.39
2023-01-27T12:47:57.724Z,6.55
2023-01-27T12:50:29.234Z,6.58
2023-01-27T12:53:12.867Z,6.47
2023-01-27T12:55:44.528Z,6.36
2023-01-27T12:58:29.517Z,6.33
2023-01-27T13:00:57.704Z,6.26
2023-01-27T13:03:27.933Z,6.30
2023-01-27T13:05:55.668Z,6.44
2023-01-27T13:08:27.130Z,6.52
2023-01-27T13:10:55.184Z,6.61
2023-01-27T13:13:24.099Z,6.59
2023-01-27T13:16:00.356Z,6.63
2023-01-27T13:18:27.077Z,6.59
2023-01-27T13:21:03.714Z,6.68
2023-01-27T13:23:34.939Z,6.63
2023-01-27T13:26:04.711Z,6.61
2023-01-27T13:28:51.151Z,6.61
2023-01-27T13:31:25.622Z,6.57
2023-01-27T13:34:00.129Z,6.51
2023-01-27T13:36:43.711Z,6.46
2023-01-27T13:39:14.376Z,6.36
2023-01-27T13:41:44.043Z,6.38
2023-01-27T13:44:26.727Z,6.45
2023-01-27T13:46:56.514Z,6.55
2023-01-27T13:49:33.774Z,6.39
2023-01-27T13:52:00.365Z,6.31
2023-01-27T13:54:29.872Z,6.17
2023-01-27T13:57:15.320Z,6.07
2023-01-27T13:59:44.950Z,6.08
2023-01-27T14:02:11.518Z,6.12
2023-01-27T14:04:56.973Z,6.04
2023-01-27T14:07:30.473Z,6.11
2023-01-27T14:10:03.153Z,6.09
2023-01-27T14:12:37.145Z,6.16
2023-01-27T14:15:08.742Z,6.28
2023-01-27T14:18:03.692Z,6.38
2023-01-27T14:20:32.165Z,6.31
2023-01-27T14:23:17.897Z,6.20
2023-01-27T14:26:03.289Z,6.18
2023-01-27T14:28:31.085Z,6.10
2023-01-27T14:31:01.364Z,5.93
2023-01-27T14:33:45.880Z,5.92
2023-01-27T14:36:15.768Z,5.93
2023-01-27T14:39:04.388Z,5.82
2023-01-27T14:41:36.097Z,5.76
2023-01-27T14:44:26.794Z,5.80
2023-01-27T14:47:05.145Z,5.80
2023-01-27T14:49:52.610Z,5.85
2023-01-27T14:52:40.430Z,5.90
2023-01-27T14:55:07.486Z,5.86
2023-01-27T14:57:54.969Z,5.71
2023-01-27T15:00:36.972Z,5.70
2023-01-27T15:03:06.035Z,5.64
2023-01-27T15:05:45.060Z,5.54
2023-01-27T15:08:18.021Z,5.49
2023-01-27T15:11:03.666Z,5.47
2023-01-27T15:13:42.505Z,5.48
2023-01-27T15:16:28.037Z,5.47
2023-01-27T15:19:06.896Z,5.42
2023-01-27T15:21:53.792Z,5.42
2023-01-27T15:24:40.707Z,5.39
2023-01-27T15:27:10.336Z,5.39
2023-01-27T15:29:37.043Z,5.35
2023-01-27T15:32:16.377Z,5.23
2023-01-27T15:34:51.355Z,5.22
2023-01-27T15:37:21.428Z,5.25
2023-01-27T15:40:06.991Z,5.29
2023-01-27T15:42:47.119Z,5.30
2023-01-27T15:45:26.361Z,5.28
2023-01-27T15:48:00.107Z,5.32
2023-01-27T15:50:32.208Z,5.31
2023-01-27T15:53:02.254Z,5.45
2023-01-27T15:55:31.752Z,5.56
2023-01-27T15:58:10.679Z,5.69
2023-01-27T16:00:43.370Z,5.77
2023-01-27T16:03:20.537Z,5.73
2023-01-27T16:05:52.271Z,5.61
2023-01-27T16:08:21.002Z,5.54
2023-01-27T16:10:49.924Z,5.50
2023-01-27T16:13:25.852Z,5.50
2023-01-27T16:16:11.327Z,5.38
2023-01-27T16:18:43.154Z,5.36
2023-01-27T16:21:27.605Z,5.34
2023-01-27T16:23:58.692Z,5.17
2023-01-27T16:26:30.333Z,5.21
2023-01-27T16:28:59.968Z,5.23
2023-01-27T16:31:29.586Z,5.31
2023-01-27T16:34:00.571Z,5.33
2023-01-27T16:36:28.192Z,5.33
2023-01-27T16:38:55.695Z,5.36
2023-01-27T16:41:26.651Z,5.37
2023-01-27T16:44:02.689Z,5.43
2023-01-27T16:46:40.914Z,5.49
2023-01-27T16:49:37.288Z,5.55
2023-01-27T16:52:06.664Z,5.51
2023-01-27T16:54:37.183Z,5.53
2023-01-27T16:57:06.692Z,5.57
2023-01-27T16:59:34.125Z,5.59
2023-01-27T17:02:04.842Z,5.48
2023-01-27T17:04:31.999Z,5.39
2023-01-27T17:07:09.810Z,5.43
2023-01-27T17:09:41.471Z,5.49
2023-01-27T17:12:26.575Z,5.47
2023-01-27T17:14:55.768Z,5.48
2023-01-27T17:17:23.287Z,5.41
2023-01-27T17:19:50.715Z,5.33
2023-01-27T17:22:20.472Z,5.32
2023-01-27T17:24:52.928Z,5.39
2023-01-27T17:27:25.732Z,5.39
2023-01-27T17:29:54.827Z,5.34
2023-01-27T17:32:31.524Z,5.41
2023-01-27T17:34:59.552Z,5.46
2023-01-27T17:37:26.449Z,5.42
2023-01-27T17:39:54.573Z,5.43
2023-01-27T17:42:27.076Z,5.47
2023-01-27T17:44:56.215Z,5.50
2023-01-27T17:47:23.146Z,5.50
2023-01-27T17:49:52.991Z,5.40
2023-01-27T17:52:23.510Z,5.36
2023-01-27T17:54:50.212Z,5.38
2023-01-27T17:57:32.812Z,5.43
2023-01-27T18:00:01.358Z,5.48
2023-01-27T18:02:31.498Z,5.47
2023-01-27T18:04:59.568Z,5.29
2023-01-27T18:07:28.579Z,5.11
2023-01-27T18:10:00.013Z,5.02
2023-01-27T18:12:26.835Z,5.07
2023-01-27T18:15:00.763Z,5.09
2023-01-27T18:17:28.097Z,5.17
2023-01-27T18:19:58.777Z,5.14
2023-01-27T18:22:27.590Z,5.16
2023-01-27T18:25:04.226Z,5.21
2023-01-27T18:27:35.249Z,5.10
2023-01-27T18:30:22.523Z,5.04
2023-01-27T18:32:53.027Z,5.10
2023-01-27T18:35:29.349Z,4.95
2023-01-27T18:37:59.641Z,5.02
2023-01-27T18:40:28.537Z,5.04
2023-01-27T18:42:55.511Z,5.11
2023-01-27T18:45:27.263Z,5.00
2023-01-27T18:47:59.611Z,5.05
2023-01-27T18:50:27.479Z,5.05
2023-01-27T18:52:54.461Z,5.04
2023-01-27T18:55:21.273Z,5.07
2023-01-27T18:57:51.321Z,5.06
2023-01-27T19:00:19.244Z,5.08
2023-01-27T19:02:49.705Z,5.13
2023-01-27T19:05:19.464Z,5.13
2023-01-27T19:07:46.753Z,5.14
2023-01-27T19:10:16.894Z,5.22
2023-01-27T19:12:45.964Z,5.29
2023-01-27T19:15:16.107Z,5.29
2023-01-27T19:17:45.617Z,5.29
2023-01-27T19:20:20.953Z,5.28
2023-01-27T19:22:47.871Z,5.32
2023-01-27T19:25:15.242Z,5.39
2023-01-27T19:27:48.587Z,5.42
2023-01-27T19:30:28.401Z,5.41
2023-01-27T19:32:55.741Z,5.39
2023-01-27T19:35:23.163Z,5.31
2023-01-27T19:37:50.014Z,5.20
2023-01-27T19:40:29.097Z,5.27
2023-01-27T19:42:55.835Z,5.17
2023-01-27T19:45:22.690Z,5.08
2023-01-27T19:47:50.107Z,5.14
2023-01-27T19:50:17.809Z,5.12
2023-01-27T19:52:44.510Z,5.18
2023-01-27T19:55:11.744Z,5.27
2023-01-27T19:57:41.448Z,5.30
2023-01-27T20:00:28.513Z,5.31
2023-01-27T20:02:55.627Z,5.31
2023-01-27T20:05:24.674Z,5.32
2023-01-27T20:07:54.071Z,5.34
2023-01-27T20:10:21.850Z,5.36
2023-01-27T20:12:59.293Z,5.31
2023-01-27T20:15:31.532Z,5.17
2023-01-27T20:18:00.579Z,5.08
2023-01-27T20:20:27.280Z,5.09
2023-01-27T20:22:56.486Z,5.14
2023-01-27T20:25:25.983Z,5.08
2023-01-27T20:27:53.857Z,5.14
2023-01-27T20:30:24.657Z,5.07
2023-01-27T20:32:51.372Z,5.07
2023-01-27T20:35:21.328Z,5.01
2023-01-27T20:37:48.486Z,4.91
2023-01-27T20:40:16.261Z,4.86
2023-01-27T20:42:45.312Z,4.80
2023-01-27T20:45:14.725Z,4.89
2023-01-27T20:47:44.011Z,4.86
2023-01-27T20:50:13.567Z,4.87
2023-01-27T20:52:40.222Z,4.90
2023-01-27T20:55:07.147Z,4.91
2023-01-27T20:57:34.095Z,4.79
2023-01-27T21:00:00.801Z,4.90
2023-01-27T21:02:30.789Z,4.87
2023-01-27T21:04:57.701Z,4.98
2023-01-27T21:07:24.689Z,5.05
2023-01-27T21:09:53.696Z,5.07
2023-01-27T21:12:21.174Z,5.12
2023-01-27T21:14:49.935Z,5.09
2023-01-27T21:17:17.372Z,5.05
2023-01-27T21:19:44.002Z,5.15
2023-01-27T21:22:10.905Z,5.12
2023-01-27T21:24:37.489Z,5.14
2023-01-27T21:27:07.128Z,5.07
2023-01-27T21:29:33.953Z,5.12
2023-01-27T21:32:00.897Z,5.17
2023-01-27T21:34:27.658Z,5.23
2023-01-27T21:36:56.953Z,5.27
2023-01-27T21:39:23.647Z,5.20
2023-01-27T21:41:52.597Z,5.24
2023-01-27T21:44:38.886Z,5.22
2023-01-27T21:47:06.087Z,5.23
2023-01-27T21:49:56.452Z,5.22
2023-01-27T21:52:23.942Z,5.18
2023-01-27T21:54:52.947Z,5.13
2023-01-27T21:57:24.332Z,5.12
2023-01-27T21:59:51.007Z,5.06
2023-01-27T22:02:20.020Z,5.15
2023-01-27T22:04:46.806Z,5.20
2023-01-27T22:07:16.658Z,5.21
2023-01-27T22:09:45.775Z,5.10
2023-01-27T22:12:13.563Z,5.01
2023-01-27T22:14:42.786Z,4.94
2023-01-27T22:17:09.659Z,5.05
2023-01-27T22:19:36.923Z,5.15
2023-01-27T22:22:07.200Z,5.17
2023-01-27T22:24:34.008Z,5.18
2023-01-27T22:27:03.219Z,5.21
2023-01-27T22:29:32.824Z,5.23
2023-01-27T22:31:59.449Z,5.23
2023-01-27T22:34:29.271Z,5.14
2023-01-27T22:36:58.315Z,5.12
2023-01-27T22:39:27.043Z,5.00
2023-01-27T22:41:53.799Z,5.00
2023-01-27T22:44:21.410Z,4.97
2023-01-27T22:46:49.251Z,5.03
2023-01-27T22:49:15.905Z,5.14
2023-01-27T22:51:42.606Z,5.15
2023-01-27T22:54:11.887Z,5.06
2023-01-27T22:56:41.361Z,5.11
2023-01-27T22:59:09.906Z,5.22
2023-01-27T23:01:36.597Z,5.28
2023-01-27T23:04:03.255Z,5.29
2023-01-27T23:06:29.974Z,5.31
2023-01-27T23:08:58.983Z,5.25
2023-01-27T23:11:27.684Z,5.23
2023-01-27T23:13:54.646Z,5.16
2023-01-27T23:16:23.754Z,5.11
2023-01-27T23:18:50.651Z,5.09
2023-01-27T23:21:17.277Z,5.07
2023-01-27T23:23:43.912Z,5.04
2023-01-27T23:26:10.564Z,5.02
2023-01-27T23:28:37.971Z,5.02
2023-01-27T23:31:07.487Z,5.00
2023-01-27T23:33:34.769Z,4.98
2023-01-27T23:36:04.032Z,5.07
2023-01-27T23:38:33.094Z,5.09
2023-01-27T23:41:03.265Z,5.05
2023-01-27T23:43:32.855Z,5.05
2023-01-27T23:45:59.905Z,4.94
2023-01-27T23:48:27.826Z,4.98
2023-01-27T23:50:54.666Z,5.00
2023-01-27T23:53:23.801Z,4.86
2023-01-27T23:55:59.199Z,4.77
2023-01-27T23:58:26.372Z,4.85
